createdAt,value
2022-07-29T00:04:14.125Z,12.84
2022-07-29T00:09:17.590Z,12.78
2022-07-29T00:14:20.880Z,12.72
2022-07-29T00:19:24.216Z,12.62
2022-07-29T00:24:28.778Z,12.58
2022-07-29T00:29:34.182Z,12.67
2022-07-29T00:34:56.659Z,12.68
2022-07-29T00:40:00.072Z,12.75
2022-07-29T00:45:03.856Z,12.81
2022-07-29T00:50:09.791Z,12.75
2022-07-29T00:55:16.058Z,12.72
2022-07-29T01:00:23.240Z,12.75
2022-07-29T01:05:48.458Z,12.74
2022-07-29T01:10:53.727Z,12.71
2022-07-29T01:16:04.873Z,12.63
2022-07-29T01:21:52.586Z,12.53
2022-07-29T01:27:10.179Z,12.40
2022-07-29T01:32:27.982Z,12.25
2022-07-29T01:37:51.675Z,12.14
2022-07-29T01:42:58.743Z,12.06
2022-07-29T01:48:08.097Z,11.94
2022-07-29T01:53:14.224Z,11.89
2022-07-29T01:58:20.574Z,11.84
2022-07-29T02:03:24.962Z,11.79
2022-07-29T02:08:30.607Z,11.65
2022-07-29T02:13:36.972Z,11.58
2022-07-29T02:18:43.246Z,11.52
2022-07-29T02:23:51.355Z,11.42
2022-07-29T02:28:58.683Z,11.32
2022-07-29T02:34:04.942Z,11.36
2022-07-29T02:39:10.821Z,11.41
2022-07-29T02:44:23.051Z,11.44
2022-07-29T02:49:40.229Z,11.57
2022-07-29T02:54:48.665Z,11.66
2022-07-29T02:59:55.877Z,11.69
2022-07-29T03:05:01.088Z,11.71
2022-07-29T03:10:07.696Z,11.74
2022-07-29T03:15:17.622Z,11.80
2022-07-29T03:20:22.050Z,11.89
2022-07-29T03:25:28.516Z,12.03
2022-07-29T03:30:32.188Z,12.18
2022-07-29T03:35:35.458Z,12.30
2022-07-29T03:40:45.088Z,12.45
2022-07-29T03:45:54.742Z,12.71
2022-07-29T03:50:58.123Z,13.06
2022-07-29T03:56:03.780Z,13.51
2022-07-29T04:01:07.474Z,14.18
2022-07-29T04:06:10.663Z,15.22
2022-07-29T04:11:14.155Z,16.13
2022-07-29T04:16:17.461Z,16.59
2022-07-29T04:21:20.854Z,17.16
2022-07-29T04:26:24.402Z,18.64
2022-07-29T04:31:27.881Z,21.29
2022-07-29T04:36:31.205Z,24.13
2022-07-29T04:41:34.857Z,26.16
2022-07-29T04:46:38.507Z,27.81
2022-07-29T04:51:41.698Z,29.09
2022-07-29T04:56:45.298Z,30.25
2022-07-29T05:01:48.613Z,31.77
2022-07-29T05:06:51.893Z,33.20
2022-07-29T05:11:55.144Z,33.95
2022-07-29T05:16:58.411Z,34.38
2022-07-29T05:22:01.733Z,34.88
2022-07-29T05:27:05.138Z,35.55
2022-07-29T05:32:08.732Z,35.88
2022-07-29T05:37:12.243Z,36.41
2022-07-29T05:42:15.664Z,37.08
2022-07-29T05:47:19.093Z,37.36
2022-07-29T05:52:22.978Z,37.44
2022-07-29T05:57:26.700Z,36.82
2022-07-29T06:02:29.938Z,35.96
2022-07-29T06:07:33.951Z,35.86
2022-07-29T06:12:39.751Z,36.20
2022-07-29T06:18:00.095Z,36.42
2022-07-29T06:23:05.823Z,36.01
2022-07-29T06:28:09.114Z,35.15
2022-07-29T06:33:18.068Z,33.82
2022-07-29T06:38:30.747Z,33.50
2022-07-29T06:43:50.152Z,33.17
2022-07-29T06:48:55.531Z,33.01
2022-07-29T06:54:02.243Z,32.73
2022-07-29T06:59:16.842Z,32.62
2022-07-29T07:04:20.811Z,32.63
2022-07-29T07:09:24.736Z,33.40
2022-07-29T07:14:43.771Z,33.58
2022-07-29T07:19:47.030Z,33.97
2022-07-29T07:24:50.278Z,34.52
2022-07-29T07:29:53.552Z,34.75
2022-07-29T07:34:58.227Z,35.16
2022-07-29T07:40:03.336Z,35.39
2022-07-29T07:45:16.609Z,35.32
2022-07-29T07:50:20.055Z,36.03
2022-07-29T07:55:23.413Z,36.12
2022-07-29T08:00:26.756Z,35.51
2022-07-29T08:05:30.039Z,35.07
2022-07-29T08:10:52.355Z,34.29
2022-07-29T08:15:59.286Z,35.03
2022-07-29T08:21:02.843Z,36.31
2022-07-29T08:26:11.552Z,36.53
2022-07-29T08:31:15.712Z,35.92
2022-07-29T08:36:19.325Z,35.78
2022-07-29T08:41:23.247Z,36.20
2022-07-29T08:46:26.938Z,36.76
2022-07-29T08:51:33.080Z,36.72
2022-07-29T08:56:36.903Z,36.22
2022-07-29T09:01:42.520Z,36.16
2022-07-29T09:06:52.760Z,35.92
2022-07-29T09:11:56.384Z,36.53
2022-07-29T09:17:01.324Z,37.09
2022-07-29T09:22:07.218Z,37.11
2022-07-29T09:27:22.490Z,37.22
2022-07-29T09:32:26.110Z,37.35
2022-07-29T09:37:30.426Z,36.93
2022-07-29T09:42:35.128Z,35.82
2022-07-29T09:47:51.907Z,35.40
2022-07-29T09:52:55.149Z,33.80
2022-07-29T09:58:18.836Z,30.63
2022-07-29T10:03:54.103Z,27.88
2022-07-29T10:09:11.859Z,26.86
2022-07-29T10:14:16.479Z,26.75
2022-07-29T10:19:20.069Z,26.11
2022-07-29T10:24:23.446Z,25.71
2022-07-29T10:29:28.107Z,26.01
2022-07-29T10:35:04.229Z,26.20
2022-07-29T10:40:48.493Z,25.89
2022-07-29T10:45:58.677Z,25.21
2022-07-29T10:51:03.914Z,24.76
2022-07-29T10:56:32.380Z,24.22
2022-07-29T11:01:37.034Z,24.24
2022-07-29T11:06:59.823Z,24.76
2022-07-29T11:12:39.764Z,25.49
2022-07-29T11:17:55.049Z,25.74
2022-07-29T11:23:26.735Z,25.32
2022-07-29T11:28:31.419Z,25.10
2022-07-29T11:33:55.842Z,25.17
2022-07-29T11:39:37.079Z,25.31
2022-07-29T11:44:58.556Z,25.42
2022-07-29T11:50:11.209Z,25.39
2022-07-29T11:55:17.345Z,25.36
2022-07-29T12:00:34.856Z,25.08
2022-07-29T12:05:48.145Z,24.81
2022-07-29T12:10:52.904Z,24.72
2022-07-29T12:16:00.086Z,24.80
2022-07-29T12:21:06.857Z,24.85
2022-07-29T12:26:10.843Z,24.80
2022-07-29T12:31:43.848Z,24.86
2022-07-29T12:36:39.925Z,24.93
2022-07-29T12:41:43.725Z,25.06
2022-07-29T12:46:49.820Z,25.31
2022-07-29T12:51:53.083Z,25.73
2022-07-29T12:57:01.700Z,25.98
2022-07-29T13:02:05.837Z,26.02
2022-07-29T13:07:10.471Z,26.28
2022-07-29T13:12:15.502Z,26.43
2022-07-29T13:17:24.164Z,26.24
2022-07-29T13:22:27.842Z,26.03
2022-07-29T13:27:33.838Z,25.85
2022-07-29T13:32:39.193Z,25.76
2022-07-29T13:37:42.702Z,25.71
2022-07-29T13:42:46.641Z,25.74
2022-07-29T13:47:50.641Z,25.75
2022-07-29T13:52:54.429Z,25.59
2022-07-29T13:57:58.043Z,25.38
2022-07-29T14:03:01.752Z,25.28
2022-07-29T14:08:05.514Z,25.16
2022-07-29T14:13:24.579Z,24.93
2022-07-29T14:18:29.237Z,24.71
2022-07-29T14:23:32.613Z,24.49
2022-07-29T14:28:39.011Z,24.37
2022-07-29T14:33:46.249Z,24.39
2022-07-29T14:38:54.119Z,24.52
2022-07-29T14:43:57.624Z,24.73
2022-07-29T14:49:04.070Z,24.89
2022-07-29T14:54:10.818Z,24.81
2022-07-29T14:59:16.701Z,24.66
2022-07-29T15:04:20.263Z,24.36
2022-07-29T15:09:25.537Z,23.95
2022-07-29T15:14:29.200Z,23.64
2022-07-29T15:19:32.863Z,23.48
2022-07-29T15:24:36.413Z,23.29
2022-07-29T15:29:40.495Z,23.04
2022-07-29T15:34:46.486Z,22.80
2022-07-29T15:39:55.024Z,22.62
2022-07-29T15:45:10.933Z,22.51
2022-07-29T15:50:20.468Z,22.52
2022-07-29T15:55:24.659Z,22.58
2022-07-29T16:00:28.652Z,22.61
2022-07-29T16:05:32.881Z,22.62
2022-07-29T16:10:39.368Z,22.61
2022-07-29T16:16:01.997Z,22.59
2022-07-29T16:21:07.783Z,22.57
2022-07-29T16:26:14.378Z,22.55
2022-07-29T16:31:18.893Z,22.53
2022-07-29T16:36:22.311Z,22.43
2022-07-29T16:41:29.852Z,22.32
2022-07-29T16:46:37.863Z,22.23
2022-07-29T16:51:44.525Z,22.11
2022-07-29T16:56:47.939Z,21.98
2022-07-29T17:01:51.235Z,21.87
2022-07-29T17:06:57.595Z,21.78
2022-07-29T17:12:01.368Z,21.70
2022-07-29T17:17:05.729Z,21.69
2022-07-29T17:22:21.911Z,21.66
2022-07-29T17:27:26.970Z,21.61
2022-07-29T17:32:36.973Z,21.55
2022-07-29T17:37:40.425Z,21.45
2022-07-29T17:42:43.983Z,21.35
2022-07-29T17:47:47.371Z,21.26
2022-07-29T17:52:50.806Z,21.15
2022-07-29T17:57:57.192Z,21.03
2022-07-29T18:03:03.545Z,20.87
2022-07-29T18:08:10.291Z,20.75
2022-07-29T18:13:14.110Z,20.62
2022-07-29T18:18:19.484Z,20.50
2022-07-29T18:23:22.851Z,20.37
2022-07-29T18:28:26.100Z,20.23
2022-07-29T18:33:29.810Z,20.08
2022-07-29T18:38:35.743Z,19.92
2022-07-29T18:43:40.410Z,19.77
2022-07-29T18:48:44.943Z,19.59
2022-07-29T18:53:52.813Z,19.41
2022-07-29T18:58:56.779Z,19.23
2022-07-29T19:04:00.816Z,19.03
2022-07-29T19:09:04.780Z,18.82
2022-07-29T19:14:08.410Z,18.61
2022-07-29T19:19:12.195Z,18.40
2022-07-29T19:24:15.876Z,18.21
2022-07-29T19:29:19.578Z,18.01
2022-07-29T19:34:22.806Z,17.87
2022-07-29T19:39:34.705Z,17.74
2022-07-29T19:44:39.074Z,17.61
2022-07-29T19:49:42.587Z,17.53
